sensor_id;sensor_type;location;lat;lon;timestamp;P1;durP1;ratioP1;P2;durP2;ratioP2
20844;SDS011;10583;49.084;8.646;2022-07-22T00:00:58;6.70;;;6.70;;
20844;SDS011;10583;49.084;8.646;2022-07-22T00:03:24;6.93;;;6.93;;
20844;SDS011;10583;49.084;8.646;2022-07-22T00:05:51;7.07;;;7.07;;
20844;SDS011;10583;49.084;8.646;2022-07-22T00:08:18;6.87;;;6.87;;
20844;SDS011;10583;49.084;8.646;2022-07-22T00:10:46;7.13;;;7.13;;
20844;SDS011;10583;49.084;8.646;2022-07-22T00:13:13;6.67;;;6.67;;
20844;SDS011;10583;49.084;8.646;2022-07-22T00:15:40;6.87;;;6.87;;
20844;SDS011;10583;49.084;8.646;2022-07-22T00:18:06;8.17;;;8.17;;
20844;SDS011;10583;49.084;8.646;2022-07-22T00:20:34;8.47;;;8.47;;
20844;SDS011;10583;49.084;8.646;2022-07-22T00:23:01;9.27;;;9.27;;
20844;SDS011;10583;49.084;8.646;2022-07-22T00:25:28;9.03;;;9.03;;
20844;SDS011;10583;49.084;8.646;2022-07-22T00:27:56;8.67;;;8.67;;
20844;SDS011;10583;49.084;8.646;2022-07-22T00:30:22;8.33;;;8.33;;
20844;SDS011;10583;49.084;8.646;2022-07-22T00:32:49;8.00;;;8.00;;
20844;SDS011;10583;49.084;8.646;2022-07-22T00:35:16;8.00;;;8.00;;
20844;SDS011;10583;49.084;8.646;2022-07-22T00:37:42;8.10;;;8.10;;
20844;SDS011;10583;49.084;8.646;2022-07-22T00:40:09;7.83;;;7.83;;
20844;SDS011;10583;49.084;8.646;2022-07-22T00:42:37;7.40;;;7.40;;
20844;SDS011;10583;49.084;8.646;2022-07-22T00:45:06;7.97;;;7.97;;
20844;SDS011;10583;49.084;8.646;2022-07-22T00:47:33;8.40;;;8.40;;
20844;SDS011;10583;49.084;8.646;2022-07-22T00:50:00;7.60;;;7.60;;
20844;SDS011;10583;49.084;8.646;2022-07-22T00:52:27;7.63;;;7.63;;
20844;SDS011;10583;49.084;8.646;2022-07-22T00:54:54;8.13;;;8.13;;
20844;SDS011;10583;49.084;8.646;2022-07-22T00:57:22;8.63;;;8.63;;
20844;SDS011;10583;49.084;8.646;2022-07-22T00:59:48;8.40;;;8.40;;
20844;SDS011;10583;49.084;8.646;2022-07-22T01:02:16;7.67;;;7.67;;
20844;SDS011;10583;49.084;8.646;2022-07-22T01:04:43;8.10;;;8.10;;
20844;SDS011;10583;49.084;8.646;2022-07-22T01:07:10;7.93;;;7.93;;
20844;SDS011;10583;49.084;8.646;2022-07-22T01:09:37;7.97;;;7.97;;
20844;SDS011;10583;49.084;8.646;2022-07-22T01:12:07;7.63;;;7.63;;
20844;SDS011;10583;49.084;8.646;2022-07-22T01:14:34;8.00;;;8.00;;
20844;SDS011;10583;49.084;8.646;2022-07-22T01:17:01;8.00;;;8.00;;
20844;SDS011;10583;49.084;8.646;2022-07-22T01:19:29;8.17;;;8.17;;
20844;SDS011;10583;49.084;8.646;2022-07-22T01:21:57;7.87;;;7.87;;
20844;SDS011;10583;49.084;8.646;2022-07-22T01:24:24;7.70;;;7.70;;
20844;SDS011;10583;49.084;8.646;2022-07-22T01:26:50;8.20;;;8.20;;
20844;SDS011;10583;49.084;8.646;2022-07-22T01:29:17;7.73;;;7.73;;
20844;SDS011;10583;49.084;8.646;2022-07-22T01:31:44;7.67;;;7.67;;
20844;SDS011;10583;49.084;8.646;2022-07-22T01:34:10;8.40;;;8.40;;
20844;SDS011;10583;49.084;8.646;2022-07-22T01:36:37;8.30;;;8.30;;
20844;SDS011;10583;49.084;8.646;2022-07-22T01:39:05;8.10;;;8.10;;
20844;SDS011;10583;49.084;8.646;2022-07-22T01:41:32;7.90;;;7.90;;
20844;SDS011;10583;49.084;8.646;2022-07-22T01:43:59;7.70;;;7.70;;
20844;SDS011;10583;49.084;8.646;2022-07-22T01:46:26;8.47;;;8.47;;
20844;SDS011;10583;49.084;8.646;2022-07-22T01:48:52;8.40;;;8.40;;
20844;SDS011;10583;49.084;8.646;2022-07-22T01:51:20;8.20;;;8.20;;
20844;SDS011;10583;49.084;8.646;2022-07-22T01:53:47;8.33;;;8.33;;
20844;SDS011;10583;49.084;8.646;2022-07-22T01:56:15;8.23;;;8.23;;
20844;SDS011;10583;49.084;8.646;2022-07-22T01:58:42;8.67;;;8.67;;
20844;SDS011;10583;49.084;8.646;2022-07-22T02:01:08;9.37;;;9.37;;
20844;SDS011;10583;49.084;8.646;2022-07-22T02:03:35;8.37;;;8.37;;
20844;SDS011;10583;49.084;8.646;2022-07-22T02:06:02;9.67;;;9.67;;
20844;SDS011;10583;49.084;8.646;2022-07-22T02:08:29;9.33;;;9.33;;
20844;SDS011;10583;49.084;8.646;2022-07-22T02:10:56;9.77;;;9.77;;
20844;SDS011;10583;49.084;8.646;2022-07-22T02:13:24;9.13;;;9.13;;
20844;SDS011;10583;49.084;8.646;2022-07-22T02:15:51;8.80;;;8.80;;
20844;SDS011;10583;49.084;8.646;2022-07-22T02:18:18;8.97;;;8.97;;
20844;SDS011;10583;49.084;8.646;2022-07-22T02:20:45;9.30;;;9.30;;
20844;SDS011;10583;49.084;8.646;2022-07-22T02:23:12;9.83;;;9.83;;
20844;SDS011;10583;49.084;8.646;2022-07-22T02:25:39;10.13;;;10.13;;
20844;SDS011;10583;49.084;8.646;2022-07-22T02:28:06;10.23;;;10.23;;
20844;SDS011;10583;49.084;8.646;2022-07-22T02:30:35;9.03;;;9.03;;
20844;SDS011;10583;49.084;8.646;2022-07-22T02:33:05;10.23;;;10.23;;
20844;SDS011;10583;49.084;8.646;2022-07-22T02:35:32;9.00;;;9.00;;
20844;SDS011;10583;49.084;8.646;2022-07-22T02:37:59;8.87;;;8.87;;
20844;SDS011;10583;49.084;8.646;2022-07-22T02:40:25;10.10;;;10.10;;
20844;SDS011;10583;49.084;8.646;2022-07-22T02:42:52;10.00;;;10.00;;
20844;SDS011;10583;49.084;8.646;2022-07-22T02:45:19;9.63;;;9.63;;
20844;SDS011;10583;49.084;8.646;2022-07-22T02:47:47;10.40;;;10.40;;
20844;SDS011;10583;49.084;8.646;2022-07-22T02:50:15;9.97;;;9.97;;
20844;SDS011;10583;49.084;8.646;2022-07-22T02:52:42;9.70;;;9.70;;
20844;SDS011;10583;49.084;8.646;2022-07-22T02:55:09;9.30;;;9.30;;
20844;SDS011;10583;49.084;8.646;2022-07-22T02:57:35;9.60;;;9.60;;
20844;SDS011;10583;49.084;8.646;2022-07-22T03:00:03;10.10;;;10.10;;
20844;SDS011;10583;49.084;8.646;2022-07-22T03:02:32;10.60;;;10.60;;
20844;SDS011;10583;49.084;8.646;2022-07-22T03:05:00;9.87;;;9.87;;
20844;SDS011;10583;49.084;8.646;2022-07-22T03:07:26;10.23;;;10.23;;
20844;SDS011;10583;49.084;8.646;2022-07-22T03:09:53;10.90;;;10.90;;
20844;SDS011;10583;49.084;8.646;2022-07-22T03:12:20;9.60;;;9.60;;
20844;SDS011;10583;49.084;8.646;2022-07-22T03:14:46;9.70;;;9.70;;
20844;SDS011;10583;49.084;8.646;2022-07-22T03:17:13;10.27;;;10.27;;
20844;SDS011;10583;49.084;8.646;2022-07-22T03:19:40;10.43;;;10.43;;
20844;SDS011;10583;49.084;8.646;2022-07-22T03:22:08;10.50;;;10.50;;
20844;SDS011;10583;49.084;8.646;2022-07-22T03:24:35;9.73;;;9.73;;
20844;SDS011;10583;49.084;8.646;2022-07-22T03:27:01;10.10;;;10.10;;
20844;SDS011;10583;49.084;8.646;2022-07-22T03:29:28;10.43;;;10.43;;
20844;SDS011;10583;49.084;8.646;2022-07-22T03:31:55;11.00;;;11.00;;
20844;SDS011;10583;49.084;8.646;2022-07-22T03:34:21;9.60;;;9.60;;
20844;SDS011;10583;49.084;8.646;2022-07-22T03:36:49;9.13;;;9.13;;
20844;SDS011;10583;49.084;8.646;2022-07-22T03:39:17;9.77;;;9.77;;
20844;SDS011;10583;49.084;8.646;2022-07-22T03:41:44;10.03;;;10.03;;
20844;SDS011;10583;49.084;8.646;2022-07-22T03:44:10;10.43;;;10.43;;
20844;SDS011;10583;49.084;8.646;2022-07-22T03:46:37;10.07;;;10.07;;
20844;SDS011;10583;49.084;8.646;2022-07-22T03:49:04;10.23;;;10.23;;
20844;SDS011;10583;49.084;8.646;2022-07-22T03:51:30;9.90;;;9.90;;
20844;SDS011;10583;49.084;8.646;2022-07-22T03:53:57;10.80;;;10.80;;
20844;SDS011;10583;49.084;8.646;2022-07-22T03:56:25;11.10;;;11.10;;
20844;SDS011;10583;49.084;8.646;2022-07-22T03:58:51;9.90;;;9.90;;
20844;SDS011;10583;49.084;8.646;2022-07-22T04:01:18;9.73;;;9.73;;
20844;SDS011;10583;49.084;8.646;2022-07-22T04:03:45;9.83;;;9.83;;
20844;SDS011;10583;49.084;8.646;2022-07-22T04:06:13;9.77;;;9.77;;
20844;SDS011;10583;49.084;8.646;2022-07-22T04:08:40;11.33;;;11.33;;
20844;SDS011;10583;49.084;8.646;2022-07-22T04:11:07;10.20;;;10.20;;
20844;SDS011;10583;49.084;8.646;2022-07-22T04:13:35;10.20;;;10.20;;
20844;SDS011;10583;49.084;8.646;2022-07-22T04:16:02;10.00;;;10.00;;
20844;SDS011;10583;49.084;8.646;2022-07-22T04:18:29;9.60;;;9.60;;
20844;SDS011;10583;49.084;8.646;2022-07-22T04:20:56;11.00;;;11.00;;
20844;SDS011;10583;49.084;8.646;2022-07-22T04:23:23;10.60;;;10.60;;
20844;SDS011;10583;49.084;8.646;2022-07-22T04:25:49;11.20;;;11.20;;
20844;SDS011;10583;49.084;8.646;2022-07-22T04:28:16;10.13;;;10.13;;
20844;SDS011;10583;49.084;8.646;2022-07-22T04:30:44;10.63;;;10.63;;
20844;SDS011;10583;49.084;8.646;2022-07-22T04:33:11;11.17;;;11.17;;
20844;SDS011;10583;49.084;8.646;2022-07-22T04:35:37;10.90;;;10.90;;
20844;SDS011;10583;49.084;8.646;2022-07-22T04:38:04;10.80;;;10.80;;
20844;SDS011;10583;49.084;8.646;2022-07-22T04:40:31;10.90;;;10.90;;
20844;SDS011;10583;49.084;8.646;2022-07-22T04:42:58;10.70;;;10.70;;
20844;SDS011;10583;49.084;8.646;2022-07-22T04:45:24;11.37;;;11.37;;
20844;SDS011;10583;49.084;8.646;2022-07-22T04:47:52;11.67;;;11.67;;
20844;SDS011;10583;49.084;8.646;2022-07-22T04:50:19;12.30;;;12.30;;
20844;SDS011;10583;49.084;8.646;2022-07-22T04:52:46;11.20;;;11.20;;
20844;SDS011;10583;49.084;8.646;2022-07-22T04:55:12;10.97;;;10.97;;
20844;SDS011;10583;49.084;8.646;2022-07-22T04:57:39;10.70;;;10.70;;
20844;SDS011;10583;49.084;8.646;2022-07-22T05:00:06;10.83;;;10.83;;
20844;SDS011;10583;49.084;8.646;2022-07-22T05:02:33;11.47;;;11.47;;
20844;SDS011;10583;49.084;8.646;2022-07-22T05:05:01;10.87;;;10.87;;
20844;SDS011;10583;49.084;8.646;2022-07-22T05:07:28;10.93;;;10.93;;
20844;SDS011;10583;49.084;8.646;2022-07-22T05:09:55;10.43;;;10.43;;
20844;SDS011;10583;49.084;8.646;2022-07-22T05:12:22;10.30;;;10.30;;
20844;SDS011;10583;49.084;8.646;2022-07-22T05:14:48;10.00;;;10.00;;
20844;SDS011;10583;49.084;8.646;2022-07-22T05:17:15;11.13;;;11.13;;
20844;SDS011;10583;49.084;8.646;2022-07-22T05:19:42;10.83;;;10.83;;
20844;SDS011;10583;49.084;8.646;2022-07-22T05:22:10;10.30;;;10.30;;
20844;SDS011;10583;49.084;8.646;2022-07-22T05:24:37;10.63;;;10.63;;
20844;SDS011;10583;49.084;8.646;2022-07-22T05:27:03;10.80;;;10.80;;
20844;SDS011;10583;49.084;8.646;2022-07-22T05:29:30;10.60;;;10.60;;
20844;SDS011;10583;49.084;8.646;2022-07-22T05:31:57;10.80;;;10.80;;
20844;SDS011;10583;49.084;8.646;2022-07-22T05:34:24;10.07;;;10.07;;
20844;SDS011;10583;49.084;8.646;2022-07-22T05:36:50;11.10;;;11.10;;
20844;SDS011;10583;49.084;8.646;2022-07-22T05:39:18;10.77;;;10.77;;
20844;SDS011;10583;49.084;8.646;2022-07-22T05:41:45;10.60;;;10.60;;
20844;SDS011;10583;49.084;8.646;2022-07-22T05:44:12;10.93;;;10.93;;
20844;SDS011;10583;49.084;8.646;2022-07-22T05:46:39;11.67;;;11.63;;
20844;SDS011;10583;49.084;8.646;2022-07-22T05:49:06;9.80;;;9.80;;
20844;SDS011;10583;49.084;8.646;2022-07-22T05:51:33;11.40;;;11.40;;
20844;SDS011;10583;49.084;8.646;2022-07-22T05:54:00;10.73;;;10.73;;
20844;SDS011;10583;49.084;8.646;2022-07-22T05:56:30;11.07;;;11.07;;
20844;SDS011;10583;49.084;8.646;2022-07-22T05:58:57;10.70;;;10.70;;
20844;SDS011;10583;49.084;8.646;2022-07-22T06:01:23;10.80;;;10.80;;
20844;SDS011;10583;49.084;8.646;2022-07-22T06:03:51;9.63;;;9.63;;
20844;SDS011;10583;49.084;8.646;2022-07-22T06:06:17;8.87;;;8.87;;
20844;SDS011;10583;49.084;8.646;2022-07-22T06:08:44;9.27;;;9.27;;
20844;SDS011;10583;49.084;8.646;2022-07-22T06:11:11;9.07;;;9.07;;
20844;SDS011;10583;49.084;8.646;2022-07-22T06:13:39;10.38;;;10.38;;
20844;SDS011;10583;49.084;8.646;2022-07-22T06:16:06;9.30;;;9.30;;
20844;SDS011;10583;49.084;8.646;2022-07-22T06:18:33;8.55;;;8.55;;
20844;SDS011;10583;49.084;8.646;2022-07-22T06:20:59;8.77;;;8.77;;
20844;SDS011;10583;49.084;8.646;2022-07-22T06:23:26;8.10;;;8.10;;
20844;SDS011;10583;49.084;8.646;2022-07-22T06:25:53;8.15;;;8.15;;
20844;SDS011;10583;49.084;8.646;2022-07-22T06:28:20;8.23;;;8.23;;
20844;SDS011;10583;49.084;8.646;2022-07-22T06:30:48;9.30;;;9.30;;
20844;SDS011;10583;49.084;8.646;2022-07-22T06:33:14;9.32;;;9.32;;
20844;SDS011;10583;49.084;8.646;2022-07-22T06:35:41;8.65;;;8.65;;
20844;SDS011;10583;49.084;8.646;2022-07-22T06:38:08;8.73;;;8.73;;
20844;SDS011;10583;49.084;8.646;2022-07-22T06:40:34;8.80;;;8.80;;
20844;SDS011;10583;49.084;8.646;2022-07-22T06:43:01;7.85;;;7.85;;
20844;SDS011;10583;49.084;8.646;2022-07-22T06:45:29;8.13;;;8.13;;
20844;SDS011;10583;49.084;8.646;2022-07-22T06:47:57;8.18;;;8.18;;
20844;SDS011;10583;49.084;8.646;2022-07-22T06:50:23;7.95;;;7.95;;
20844;SDS011;10583;49.084;8.646;2022-07-22T06:52:50;7.63;;;7.63;;
20844;SDS011;10583;49.084;8.646;2022-07-22T06:55:17;7.40;;;7.40;;
20844;SDS011;10583;49.084;8.646;2022-07-22T06:57:44;8.48;;;8.48;;
20844;SDS011;10583;49.084;8.646;2022-07-22T07:00:11;7.97;;;7.97;;
20844;SDS011;10583;49.084;8.646;2022-07-22T07:02:38;8.32;;;8.32;;
20844;SDS011;10583;49.084;8.646;2022-07-22T07:05:06;8.45;;;8.45;;
20844;SDS011;10583;49.084;8.646;2022-07-22T07:07:34;9.35;;;9.35;;
20844;SDS011;10583;49.084;8.646;2022-07-22T07:10:01;7.75;;;7.75;;
20844;SDS011;10583;49.084;8.646;2022-07-22T07:12:28;7.88;;;7.88;;
20844;SDS011;10583;49.084;8.646;2022-07-22T07:14:55;7.65;;;7.65;;
20844;SDS011;10583;49.084;8.646;2022-07-22T07:17:21;8.43;;;8.43;;
20844;SDS011;10583;49.084;8.646;2022-07-22T07:19:49;7.80;;;7.80;;
20844;SDS011;10583;49.084;8.646;2022-07-22T07:22:17;7.70;;;7.70;;
20844;SDS011;10583;49.084;8.646;2022-07-22T07:24:44;7.68;;;7.68;;
20844;SDS011;10583;49.084;8.646;2022-07-22T07:27:10;6.88;;;6.88;;
20844;SDS011;10583;49.084;8.646;2022-07-22T07:29:37;6.57;;;6.57;;
20844;SDS011;10583;49.084;8.646;2022-07-22T07:32:04;6.15;;;6.15;;
20844;SDS011;10583;49.084;8.646;2022-07-22T07:34:31;6.93;;;6.93;;
20844;SDS011;10583;49.084;8.646;2022-07-22T07:36:58;6.20;;;6.20;;
20844;SDS011;10583;49.084;8.646;2022-07-22T07:39:26;6.53;;;6.53;;
20844;SDS011;10583;49.084;8.646;2022-07-22T07:41:52;6.68;;;6.68;;
20844;SDS011;10583;49.084;8.646;2022-07-22T07:44:19;7.18;;;7.18;;
20844;SDS011;10583;49.084;8.646;2022-07-22T07:46:46;6.80;;;6.80;;
20844;SDS011;10583;49.084;8.646;2022-07-22T07:49:13;6.32;;;6.32;;
20844;SDS011;10583;49.084;8.646;2022-07-22T07:51:39;6.22;;;6.22;;
20844;SDS011;10583;49.084;8.646;2022-07-22T07:54:06;7.22;;;7.22;;
20844;SDS011;10583;49.084;8.646;2022-07-22T07:56:34;6.35;;;6.35;;
20844;SDS011;10583;49.084;8.646;2022-07-22T07:59:01;6.55;;;6.55;;
20844;SDS011;10583;49.084;8.646;2022-07-22T08:01:28;6.85;;;6.85;;
20844;SDS011;10583;49.084;8.646;2022-07-22T08:03:55;6.32;;;6.32;;
20844;SDS011;10583;49.084;8.646;2022-07-22T08:06:22;6.47;;;6.47;;
20844;SDS011;10583;49.084;8.646;2022-07-22T08:08:49;5.60;;;5.60;;
20844;SDS011;10583;49.084;8.646;2022-07-22T08:11:15;6.25;;;6.25;;
20844;SDS011;10583;49.084;8.646;2022-07-22T08:13:44;6.05;;;6.05;;
20844;SDS011;10583;49.084;8.646;2022-07-22T08:16:10;6.55;;;6.55;;
20844;SDS011;10583;49.084;8.646;2022-07-22T08:18:37;5.75;;;5.75;;
20844;SDS011;10583;49.084;8.646;2022-07-22T08:21:04;6.00;;;6.00;;
20844;SDS011;10583;49.084;8.646;2022-07-22T08:23:31;6.35;;;6.35;;
20844;SDS011;10583;49.084;8.646;2022-07-22T08:25:57;5.93;;;5.93;;
20844;SDS011;10583;49.084;8.646;2022-07-22T08:28:24;6.20;;;6.20;;
20844;SDS011;10583;49.084;8.646;2022-07-22T08:30:52;7.00;;;7.00;;
20844;SDS011;10583;49.084;8.646;2022-07-22T08:33:19;6.57;;;6.57;;
20844;SDS011;10583;49.084;8.646;2022-07-22T08:35:46;6.95;;;6.95;;
20844;SDS011;10583;49.084;8.646;2022-07-22T08:38:13;6.90;;;6.90;;
20844;SDS011;10583;49.084;8.646;2022-07-22T08:40:39;6.40;;;6.40;;
20844;SDS011;10583;49.084;8.646;2022-07-22T08:43:06;7.05;;;7.05;;
20844;SDS011;10583;49.084;8.646;2022-07-22T08:45:33;6.82;;;6.82;;
20844;SDS011;10583;49.084;8.646;2022-07-22T08:48:01;6.38;;;6.38;;
20844;SDS011;10583;49.084;8.646;2022-07-22T08:50:30;6.55;;;6.55;;
20844;SDS011;10583;49.084;8.646;2022-07-22T08:52:58;6.03;;;6.03;;
20844;SDS011;10583;49.084;8.646;2022-07-22T08:55:24;6.55;;;6.55;;
20844;SDS011;10583;49.084;8.646;2022-07-22T08:57:51;5.57;;;5.57;;
20844;SDS011;10583;49.084;8.646;2022-07-22T09:00:18;6.40;;;6.40;;
20844;SDS011;10583;49.084;8.646;2022-07-22T09:02:46;6.68;;;6.68;;
20844;SDS011;10583;49.084;8.646;2022-07-22T09:05:15;6.00;;;6.00;;
20844;SDS011;10583;49.084;8.646;2022-07-22T09:07:44;5.60;;;5.60;;
20844;SDS011;10583;49.084;8.646;2022-07-22T09:10:12;5.75;;;5.75;;
20844;SDS011;10583;49.084;8.646;2022-07-22T09:12:50;5.60;;;5.60;;
20844;SDS011;10583;49.084;8.646;2022-07-22T09:15:24;5.82;;;5.82;;
20844;SDS011;10583;49.084;8.646;2022-07-22T09:17:52;5.40;;;5.40;;
20844;SDS011;10583;49.084;8.646;2022-07-22T09:20:21;5.63;;;5.63;;
20844;SDS011;10583;49.084;8.646;2022-07-22T09:22:48;5.47;;;5.47;;
20844;SDS011;10583;49.084;8.646;2022-07-22T09:25:19;6.00;;;6.00;;
20844;SDS011;10583;49.084;8.646;2022-07-22T09:27:53;5.45;;;5.45;;
20844;SDS011;10583;49.084;8.646;2022-07-22T09:30:22;5.53;;;5.53;;
20844;SDS011;10583;49.084;8.646;2022-07-22T09:32:51;6.07;;;6.07;;
20844;SDS011;10583;49.084;8.646;2022-07-22T09:35:23;5.35;;;5.35;;
20844;SDS011;10583;49.084;8.646;2022-07-22T09:37:51;6.05;;;6.05;;
20844;SDS011;10583;49.084;8.646;2022-07-22T09:40:20;6.13;;;6.13;;
20844;SDS011;10583;49.084;8.646;2022-07-22T09:42:49;5.32;;;5.32;;
20844;SDS011;10583;49.084;8.646;2022-07-22T09:45:17;5.95;;;5.95;;
20844;SDS011;10583;49.084;8.646;2022-07-22T09:47:46;5.60;;;5.60;;
20844;SDS011;10583;49.084;8.646;2022-07-22T09:50:18;5.75;;;5.75;;
20844;SDS011;10583;49.084;8.646;2022-07-22T09:52:48;5.18;;;5.18;;
20844;SDS011;10583;49.084;8.646;2022-07-22T09:55:16;5.55;;;5.55;;
20844;SDS011;10583;49.084;8.646;2022-07-22T09:57:44;5.82;;;5.82;;
20844;SDS011;10583;49.084;8.646;2022-07-22T10:00:11;5.68;;;5.68;;
20844;SDS011;10583;49.084;8.646;2022-07-22T10:02:40;5.57;;;5.57;;
20844;SDS011;10583;49.084;8.646;2022-07-22T10:05:12;5.90;;;5.90;;
20844;SDS011;10583;49.084;8.646;2022-07-22T10:07:41;5.68;;;5.68;;
20844;SDS011;10583;49.084;8.646;2022-07-22T10:10:11;5.85;;;5.85;;
20844;SDS011;10583;49.084;8.646;2022-07-22T10:12:39;5.40;;;5.40;;
20844;SDS011;10583;49.084;8.646;2022-07-22T10:15:07;5.78;;;5.78;;
20844;SDS011;10583;49.084;8.646;2022-07-22T10:17:35;5.90;;;5.90;;
20844;SDS011;10583;49.084;8.646;2022-07-22T10:20:04;5.70;;;5.70;;
20844;SDS011;10583;49.084;8.646;2022-07-22T10:22:45;5.47;;;5.47;;
20844;SDS011;10583;49.084;8.646;2022-07-22T10:25:22;5.93;;;5.93;;
20844;SDS011;10583;49.084;8.646;2022-07-22T10:27:51;5.80;;;5.80;;
20844;SDS011;10583;49.084;8.646;2022-07-22T10:30:19;5.07;;;5.07;;
20844;SDS011;10583;49.084;8.646;2022-07-22T10:33:01;5.60;;;5.60;;
20844;SDS011;10583;49.084;8.646;2022-07-22T10:35:28;5.75;;;5.75;;
20844;SDS011;10583;49.084;8.646;2022-07-22T10:37:57;6.32;;;6.32;;
20844;SDS011;10583;49.084;8.646;2022-07-22T10:40:28;5.60;;;5.60;;
20844;SDS011;10583;49.084;8.646;2022-07-22T10:45:44;6.07;;;6.07;;
20844;SDS011;10583;49.084;8.646;2022-07-22T10:48:13;5.70;;;5.70;;
20844;SDS011;10583;49.084;8.646;2022-07-22T10:50:42;5.35;;;5.35;;
20844;SDS011;10583;49.084;8.646;2022-07-22T10:53:15;5.70;;;5.70;;
20844;SDS011;10583;49.084;8.646;2022-07-22T10:56:05;6.07;;;6.07;;
20844;SDS011;10583;49.084;8.646;2022-07-22T10:58:44;5.78;;;5.78;;
20844;SDS011;10583;49.084;8.646;2022-07-22T11:01:14;5.53;;;5.53;;
20844;SDS011;10583;49.084;8.646;2022-07-22T11:03:44;5.43;;;5.43;;
20844;SDS011;10583;49.084;8.646;2022-07-22T11:08:57;5.40;;;5.40;;
20844;SDS011;10583;49.084;8.646;2022-07-22T11:11:32;5.72;;;5.72;;
20844;SDS011;10583;49.084;8.646;2022-07-22T11:14:02;5.72;;;5.72;;
20844;SDS011;10583;49.084;8.646;2022-07-22T11:16:36;5.38;;;5.38;;
20844;SDS011;10583;49.084;8.646;2022-07-22T11:19:03;5.82;;;5.82;;
20844;SDS011;10583;49.084;8.646;2022-07-22T11:21:30;5.03;;;5.03;;
20844;SDS011;10583;49.084;8.646;2022-07-22T11:23:59;5.13;;;5.13;;
20844;SDS011;10583;49.084;8.646;2022-07-22T11:26:33;5.10;;;5.10;;
20844;SDS011;10583;49.084;8.646;2022-07-22T11:29:03;5.22;;;5.22;;
20844;SDS011;10583;49.084;8.646;2022-07-22T11:31:30;4.93;;;4.93;;
20844;SDS011;10583;49.084;8.646;2022-07-22T11:34:04;5.13;;;5.13;;
20844;SDS011;10583;49.084;8.646;2022-07-22T11:36:33;5.10;;;5.10;;
20844;SDS011;10583;49.084;8.646;2022-07-22T11:39:00;5.38;;;5.38;;
20844;SDS011;10583;49.084;8.646;2022-07-22T11:41:28;5.07;;;5.07;;
20844;SDS011;10583;49.084;8.646;2022-07-22T11:43:56;5.00;;;5.00;;
20844;SDS011;10583;49.084;8.646;2022-07-22T11:46:24;4.68;;;4.68;;
20844;SDS011;10583;49.084;8.646;2022-07-22T11:48:51;5.40;;;5.40;;
20844;SDS011;10583;49.084;8.646;2022-07-22T11:51:18;5.50;;;5.50;;
20844;SDS011;10583;49.084;8.646;2022-07-22T11:53:45;4.75;;;4.75;;
20844;SDS011;10583;49.084;8.646;2022-07-22T11:56:12;5.43;;;5.43;;
20844;SDS011;10583;49.084;8.646;2022-07-22T11:58:40;5.18;;;5.18;;
20844;SDS011;10583;49.084;8.646;2022-07-22T12:01:10;5.95;;;5.95;;
20844;SDS011;10583;49.084;8.646;2022-07-22T12:03:39;5.40;;;5.40;;
20844;SDS011;10583;49.084;8.646;2022-07-22T12:06:09;4.93;;;4.93;;
20844;SDS011;10583;49.084;8.646;2022-07-22T12:08:41;5.57;;;5.57;;
20844;SDS011;10583;49.084;8.646;2022-07-22T12:11:10;5.35;;;5.35;;
20844;SDS011;10583;49.084;8.646;2022-07-22T12:13:40;4.88;;;4.88;;
20844;SDS011;10583;49.084;8.646;2022-07-22T12:16:23;5.43;;;5.43;;
20844;SDS011;10583;49.084;8.646;2022-07-22T12:18:56;4.85;;;4.85;;
20844;SDS011;10583;49.084;8.646;2022-07-22T12:21:25;4.95;;;4.95;;
20844;SDS011;10583;49.084;8.646;2022-07-22T12:23:54;4.95;;;4.95;;
20844;SDS011;10583;49.084;8.646;2022-07-22T12:26:36;5.22;;;5.22;;
20844;SDS011;10583;49.084;8.646;2022-07-22T12:29:14;4.22;;;4.22;;
20844;SDS011;10583;49.084;8.646;2022-07-22T12:31:44;5.10;;;5.10;;
20844;SDS011;10583;49.084;8.646;2022-07-22T12:34:12;4.95;;;4.95;;
20844;SDS011;10583;49.084;8.646;2022-07-22T12:36:42;5.00;;;5.00;;
20844;SDS011;10583;49.084;8.646;2022-07-22T12:39:13;4.90;;;4.90;;
20844;SDS011;10583;49.084;8.646;2022-07-22T12:41:45;4.70;;;4.70;;
20844;SDS011;10583;49.084;8.646;2022-07-22T12:44:19;4.93;;;4.93;;
20844;SDS011;10583;49.084;8.646;2022-07-22T12:46:49;5.10;;;5.10;;
20844;SDS011;10583;49.084;8.646;2022-07-22T12:49:18;5.28;;;5.28;;
20844;SDS011;10583;49.084;8.646;2022-07-22T12:52:04;4.95;;;4.95;;
20844;SDS011;10583;49.084;8.646;2022-07-22T12:54:32;5.35;;;5.35;;
20844;SDS011;10583;49.084;8.646;2022-07-22T12:56:59;4.72;;;4.72;;
20844;SDS011;10583;49.084;8.646;2022-07-22T12:59:26;4.88;;;4.88;;
20844;SDS011;10583;49.084;8.646;2022-07-22T13:01:54;4.78;;;4.78;;
20844;SDS011;10583;49.084;8.646;2022-07-22T13:04:20;4.63;;;4.63;;
20844;SDS011;10583;49.084;8.646;2022-07-22T13:06:47;4.63;;;4.63;;
20844;SDS011;10583;49.084;8.646;2022-07-22T13:09:14;4.88;;;4.88;;
20844;SDS011;10583;49.084;8.646;2022-07-22T13:11:41;4.60;;;4.60;;
20844;SDS011;10583;49.084;8.646;2022-07-22T13:14:09;4.93;;;4.93;;
20844;SDS011;10583;49.084;8.646;2022-07-22T13:16:36;4.90;;;4.90;;
20844;SDS011;10583;49.084;8.646;2022-07-22T13:19:04;4.68;;;4.68;;
20844;SDS011;10583;49.084;8.646;2022-07-22T13:21:31;5.25;;;5.25;;
20844;SDS011;10583;49.084;8.646;2022-07-22T13:23:57;4.90;;;4.90;;
20844;SDS011;10583;49.084;8.646;2022-07-22T13:26:24;4.50;;;4.50;;
20844;SDS011;10583;49.084;8.646;2022-07-22T13:28:51;5.13;;;5.13;;
20844;SDS011;10583;49.084;8.646;2022-07-22T13:31:18;4.75;;;4.75;;
20844;SDS011;10583;49.084;8.646;2022-07-22T13:33:44;5.18;;;5.18;;
20844;SDS011;10583;49.084;8.646;2022-07-22T13:36:12;4.97;;;4.97;;
20844;SDS011;10583;49.084;8.646;2022-07-22T13:38:39;4.65;;;4.65;;
20844;SDS011;10583;49.084;8.646;2022-07-22T13:41:06;5.03;;;5.03;;
20844;SDS011;10583;49.084;8.646;2022-07-22T13:43:41;5.20;;;5.20;;
20844;SDS011;10583;49.084;8.646;2022-07-22T13:46:08;4.97;;;4.97;;
20844;SDS011;10583;49.084;8.646;2022-07-22T13:48:35;4.85;;;4.85;;
20844;SDS011;10583;49.084;8.646;2022-07-22T13:51:02;5.18;;;5.18;;
20844;SDS011;10583;49.084;8.646;2022-07-22T13:53:31;4.70;;;4.70;;
20844;SDS011;10583;49.084;8.646;2022-07-22T13:55:58;4.88;;;4.88;;
20844;SDS011;10583;49.084;8.646;2022-07-22T13:58:24;5.03;;;5.03;;
20844;SDS011;10583;49.084;8.646;2022-07-22T14:00:51;4.90;;;4.90;;
20844;SDS011;10583;49.084;8.646;2022-07-22T14:03:19;4.85;;;4.85;;
20844;SDS011;10583;49.084;8.646;2022-07-22T14:05:45;4.85;;;4.85;;
20844;SDS011;10583;49.084;8.646;2022-07-22T14:08:12;5.00;;;5.00;;
20844;SDS011;10583;49.084;8.646;2022-07-22T14:10:40;5.53;;;5.53;;
20844;SDS011;10583;49.084;8.646;2022-07-22T14:13:07;5.18;;;5.18;;
20844;SDS011;10583;49.084;8.646;2022-07-22T14:15:34;5.20;;;5.20;;
20844;SDS011;10583;49.084;8.646;2022-07-22T14:18:00;5.20;;;5.20;;
20844;SDS011;10583;49.084;8.646;2022-07-22T14:20:28;5.30;;;5.30;;
20844;SDS011;10583;49.084;8.646;2022-07-22T14:22:54;5.07;;;5.07;;
20844;SDS011;10583;49.084;8.646;2022-07-22T14:25:21;4.75;;;4.75;;
20844;SDS011;10583;49.084;8.646;2022-07-22T14:27:50;4.70;;;4.70;;
20844;SDS011;10583;49.084;8.646;2022-07-22T14:30:16;4.90;;;4.90;;
20844;SDS011;10583;49.084;8.646;2022-07-22T14:32:43;4.82;;;4.82;;
20844;SDS011;10583;49.084;8.646;2022-07-22T14:35:10;4.70;;;4.70;;
20844;SDS011;10583;49.084;8.646;2022-07-22T14:37:36;4.45;;;4.45;;
20844;SDS011;10583;49.084;8.646;2022-07-22T14:40:04;4.82;;;4.82;;
20844;SDS011;10583;49.084;8.646;2022-07-22T14:42:31;4.78;;;4.78;;
20844;SDS011;10583;49.084;8.646;2022-07-22T14:44:59;4.43;;;4.43;;
20844;SDS011;10583;49.084;8.646;2022-07-22T14:47:26;4.57;;;4.57;;
20844;SDS011;10583;49.084;8.646;2022-07-22T14:49:53;4.88;;;4.88;;
20844;SDS011;10583;49.084;8.646;2022-07-22T14:52:19;4.82;;;4.82;;